Terminal Aerodrome Forecast
Issued by NWS Grand Forks, ND

Home | Current Version | Previous Version | Text Only | Print | Product List | Glossary On
Versions: 1 2 3 4 5 6 7 8 9 10 11 12 13 14 15 16
000
FTUS43 KFGF 210100 AAA
TAFGFK
TAF AMD
KGFK 210136Z 2102/2124 17010KT 4SM -SN BR OVC006
     FM210300 18008KT 5SM BR OVC006
     FM211600 17013KT 5SM BR OVC009=

USA.gov is the U.S. government's official web portal to all federal, state and local government web resources and services.